createdAt,value
2022-11-14T00:01:16.910Z,22.58
2022-11-14T00:03:43.590Z,22.65
2022-11-14T00:06:12.763Z,23.27
2022-11-14T00:08:39.431Z,23.20
2022-11-14T00:11:06.078Z,22.42
2022-11-14T00:13:32.752Z,22.92
2022-11-14T00:15:59.413Z,22.40
2022-11-14T00:18:26.057Z,22.35
2022-11-14T00:20:53.509Z,22.77
2022-11-14T00:23:23.773Z,22.90
2022-11-14T00:25:50.889Z,22.02
2022-11-14T00:28:17.560Z,22.75
2022-11-14T00:30:50.273Z,22.90
2022-11-14T00:33:20.885Z,20.63
2022-11-14T00:35:55.361Z,22.08
2022-11-14T00:38:22.504Z,22.23
2022-11-14T00:40:49.249Z,20.55
2022-11-14T00:43:15.920Z,21.42
2022-11-14T00:45:48.393Z,20.52
2022-11-14T00:48:15.804Z,20.48
2022-11-14T00:50:43.010Z,20.92
2022-11-14T00:53:11.832Z,20.90
2022-11-14T00:55:43.930Z,20.73
2022-11-14T00:58:12.755Z,22.05
2022-11-14T01:00:39.637Z,20.45
2022-11-14T01:03:08.597Z,20.90
2022-11-14T01:05:41.426Z,22.33
2022-11-14T01:08:08.109Z,20.38
2022-11-14T01:10:34.826Z,21.77
2022-11-14T01:13:03.724Z,20.67
2022-11-14T01:15:30.361Z,20.25
2022-11-14T01:17:57.074Z,20.52
2022-11-14T01:20:23.740Z,19.40
2022-11-14T01:22:50.416Z,20.33
2022-11-14T01:25:17.090Z,20.05
2022-11-14T01:27:43.757Z,20.33
2022-11-14T01:30:10.939Z,18.70
2022-11-14T01:32:39.778Z,19.98
2022-11-14T01:35:06.658Z,20.35
2022-11-14T01:37:33.276Z,19.35
2022-11-14T01:39:59.889Z,19.20
2022-11-14T01:42:27.665Z,18.55
2022-11-14T01:44:54.444Z,18.58
2022-11-14T01:47:26.076Z,19.00
2022-11-14T01:49:59.912Z,18.90
2022-11-14T01:54:58.443Z,18.00
2022-11-14T01:57:32.268Z,17.95
2022-11-14T02:00:05.823Z,17.88
2022-11-14T02:02:32.618Z,18.02
2022-11-14T02:05:07.636Z,17.70
2022-11-14T02:07:37.874Z,19.33
2022-11-14T02:10:08.668Z,19.83
2022-11-14T02:12:35.998Z,18.92
2022-11-14T02:15:02.774Z,18.23
2022-11-14T02:17:32.800Z,19.55
2022-11-14T02:20:08.152Z,17.77
2022-11-14T02:22:34.997Z,19.27
2022-11-14T02:25:02.329Z,18.42
2022-11-14T02:27:32.870Z,18.92
2022-11-14T02:30:13.068Z,17.90
2022-11-14T02:33:08.910Z,19.20
2022-11-14T02:35:26.517Z,17.95
2022-11-14T02:37:53.201Z,18.75
2022-11-14T02:40:19.945Z,19.05
2022-11-14T02:42:49.038Z,18.67
2022-11-14T02:45:15.669Z,18.13
2022-11-14T02:47:44.561Z,18.35
2022-11-14T02:50:13.339Z,18.58
2022-11-14T02:52:42.539Z,19.13
2022-11-14T02:55:09.631Z,18.45
2022-11-14T02:57:39.410Z,18.27
2022-11-14T03:00:10.131Z,19.27
2022-11-14T03:02:43.601Z,18.92
2022-11-14T03:05:10.413Z,17.85
2022-11-14T03:07:39.274Z,18.92
2022-11-14T03:10:09.558Z,17.50
2022-11-14T03:12:36.273Z,18.65
2022-11-14T03:15:03.620Z,17.73
2022-11-14T03:17:34.561Z,17.75
2022-11-14T03:20:03.701Z,18.63
2022-11-14T03:22:32.505Z,18.15
2022-11-14T03:24:59.210Z,17.80
2022-11-14T03:27:25.801Z,18.25
2022-11-14T03:29:52.499Z,17.98
2022-11-14T03:32:21.469Z,18.38
2022-11-14T03:34:50.508Z,17.85
2022-11-14T03:37:17.213Z,18.13
2022-11-14T03:39:43.854Z,18.20
2022-11-14T03:42:10.588Z,17.83
2022-11-14T03:44:39.780Z,18.77
2022-11-14T03:47:06.425Z,18.27
2022-11-14T03:49:35.505Z,17.25
2022-11-14T03:52:02.164Z,18.10
2022-11-14T03:54:28.843Z,17.88
2022-11-14T03:57:00.536Z,17.30
2022-11-14T03:59:29.723Z,17.73
2022-11-14T04:01:56.381Z,18.33
2022-11-14T04:04:23.015Z,18.60
2022-11-14T04:06:51.824Z,17.02
2022-11-14T04:09:19.057Z,18.05
2022-11-14T04:11:47.858Z,17.05
2022-11-14T04:14:17.051Z,17.00
2022-11-14T04:16:43.680Z,16.77
2022-11-14T04:19:10.280Z,16.90
2022-11-14T04:21:36.884Z,17.95
2022-11-14T04:24:08.400Z,17.83
2022-11-14T04:26:37.463Z,18.08
2022-11-14T04:29:04.081Z,18.13
2022-11-14T04:31:30.711Z,15.30
2022-11-14T04:33:57.390Z,15.82
2022-11-14T04:36:24.005Z,14.98
2022-11-14T04:38:50.652Z,15.15
2022-11-14T04:41:17.338Z,15.48
2022-11-14T04:43:50.626Z,14.52
2022-11-14T04:46:17.833Z,15.07
2022-11-14T04:48:47.080Z,15.18
2022-11-14T04:51:16.181Z,16.40
2022-11-14T04:53:44.949Z,15.23
2022-11-14T04:56:11.640Z,14.95
2022-11-14T04:58:38.742Z,14.95
2022-11-14T05:01:13.489Z,14.52
2022-11-14T05:03:40.157Z,14.68
2022-11-14T05:06:07.460Z,14.85
2022-11-14T05:08:34.637Z,15.60
2022-11-14T05:11:01.273Z,13.77
2022-11-14T05:13:27.921Z,16.05
2022-11-14T05:16:01.071Z,15.65
2022-11-14T05:18:27.985Z,16.50
2022-11-14T05:20:58.784Z,15.50
2022-11-14T05:23:25.674Z,17.08
2022-11-14T05:26:00.672Z,17.50
2022-11-14T05:28:27.709Z,18.08
2022-11-14T05:31:13.787Z,19.25
2022-11-14T05:33:43.087Z,19.80
2022-11-14T05:36:12.792Z,20.23
2022-11-14T05:38:39.672Z,19.92
2022-11-14T05:41:11.611Z,19.88
2022-11-14T05:43:38.641Z,20.75
2022-11-14T05:46:09.009Z,19.73
2022-11-14T05:48:35.828Z,19.48
2022-11-14T05:51:04.722Z,20.02
2022-11-14T05:53:33.276Z,19.67
2022-11-14T05:56:11.828Z,19.90
2022-11-14T05:58:41.265Z,19.75
2022-11-14T06:01:14.238Z,19.58
2022-11-14T06:03:43.853Z,19.67
2022-11-14T06:06:13.594Z,18.08
2022-11-14T06:08:41.293Z,19.83
2022-11-14T06:11:14.335Z,18.33
2022-11-14T06:13:41.614Z,19.70
2022-11-14T06:16:14.111Z,18.98
2022-11-14T06:18:41.517Z,18.92
2022-11-14T06:21:11.890Z,18.35
2022-11-14T06:23:39.018Z,16.90
2022-11-14T06:26:08.151Z,18.15
2022-11-14T06:28:34.812Z,16.90
2022-11-14T06:31:05.933Z,16.48
2022-11-14T06:33:36.613Z,17.50
2022-11-14T06:36:07.963Z,15.93
2022-11-14T06:38:37.444Z,20.20
2022-11-14T06:41:12.354Z,19.35
2022-11-14T06:43:41.108Z,17.90
2022-11-14T06:46:10.337Z,17.58
2022-11-14T06:48:37.605Z,17.50
2022-11-14T06:51:05.297Z,18.02
2022-11-14T06:53:33.849Z,18.65
2022-11-14T06:56:07.511Z,19.45
2022-11-14T06:58:39.874Z,20.25
2022-11-14T07:01:22.867Z,18.98
2022-11-14T07:03:50.128Z,20.23
2022-11-14T07:06:22.858Z,20.27
2022-11-14T07:08:50.308Z,19.77
2022-11-14T07:11:26.569Z,18.05
2022-11-14T07:14:01.564Z,16.75
2022-11-14T07:16:36.990Z,18.45
2022-11-14T07:19:09.282Z,18.20
2022-11-14T07:21:36.647Z,19.35
2022-11-14T07:24:03.416Z,19.70
2022-11-14T07:26:30.120Z,19.08
2022-11-14T07:29:02.193Z,20.70
2022-11-14T07:31:29.688Z,20.15
2022-11-14T07:33:56.349Z,21.13
2022-11-14T07:36:23.620Z,25.08
2022-11-14T07:38:50.295Z,21.95
2022-11-14T07:41:18.089Z,19.55
2022-11-14T07:43:47.214Z,22.33
2022-11-14T07:46:17.983Z,22.80
2022-11-14T07:48:45.382Z,23.02
2022-11-14T07:51:17.389Z,23.25
2022-11-14T07:53:46.606Z,23.05
2022-11-14T07:56:13.577Z,21.00
2022-11-14T07:58:41.566Z,19.38
2022-11-14T08:01:10.345Z,19.75
2022-11-14T08:03:40.929Z,20.05
2022-11-14T08:06:12.955Z,17.90
2022-11-14T08:08:39.644Z,18.50
2022-11-14T08:11:06.378Z,20.15
2022-11-14T08:13:33.890Z,20.25
2022-11-14T08:16:12.017Z,19.50
2022-11-14T08:18:40.140Z,19.80
2022-11-14T08:21:07.017Z,19.40
2022-11-14T08:23:33.809Z,19.35
2022-11-14T08:26:00.773Z,17.35
2022-11-14T08:28:27.975Z,18.88
2022-11-14T08:31:00.318Z,18.33
2022-11-14T08:33:27.042Z,17.88
2022-11-14T08:35:54.630Z,18.50
2022-11-14T08:38:21.278Z,19.33
2022-11-14T08:40:48.105Z,19.92
2022-11-14T08:43:14.728Z,17.98
2022-11-14T08:45:43.645Z,18.52
2022-11-14T08:48:11.328Z,19.52
2022-11-14T08:50:38.125Z,19.20
2022-11-14T08:53:04.900Z,20.77
2022-11-14T08:55:31.739Z,19.83
2022-11-14T08:57:58.458Z,18.77
2022-11-14T09:00:27.622Z,19.33
2022-11-14T09:02:56.864Z,18.98
2022-11-14T09:05:23.550Z,19.15
2022-11-14T09:07:50.209Z,20.67
2022-11-14T09:10:19.325Z,20.67
2022-11-14T09:12:46.064Z,20.58
2022-11-14T09:15:12.797Z,18.90
2022-11-14T09:17:39.469Z,19.70
2022-11-14T09:20:06.580Z,20.27
2022-11-14T09:22:33.359Z,20.50
2022-11-14T09:24:59.996Z,19.48
2022-11-14T09:27:27.639Z,19.60
2022-11-14T09:29:54.461Z,19.13
2022-11-14T09:32:21.214Z,18.42
2022-11-14T09:34:48.127Z,18.35
2022-11-14T09:37:14.904Z,16.50
2022-11-14T09:39:41.783Z,18.42
2022-11-14T09:42:29.816Z,17.83
2022-11-14T09:45:02.438Z,17.88
2022-11-14T09:47:44.936Z,19.27
2022-11-14T09:50:15.784Z,18.15
2022-11-14T09:52:47.737Z,17.80
2022-11-14T09:55:26.053Z,18.98
2022-11-14T09:57:52.738Z,18.83
2022-11-14T10:00:21.999Z,18.48
2022-11-14T10:02:59.095Z,17.98
2022-11-14T10:05:56.987Z,19.45
2022-11-14T10:08:45.376Z,16.95
2022-11-14T10:11:29.493Z,16.98
2022-11-14T10:16:28.439Z,16.45
2022-11-14T10:19:23.551Z,17.45
2022-11-14T10:22:13.143Z,18.42
2022-11-14T10:25:22.350Z,18.30
2022-11-14T10:28:05.518Z,18.55
2022-11-14T10:31:10.211Z,17.43
2022-11-14T10:33:55.683Z,16.23
2022-11-14T10:36:24.581Z,17.67
2022-11-14T10:39:00.488Z,16.20
2022-11-14T10:41:55.053Z,16.10
2022-11-14T10:44:24.928Z,15.93
2022-11-14T10:46:57.207Z,16.98
2022-11-14T10:49:26.010Z,16.50
2022-11-14T10:52:03.000Z,15.50
2022-11-14T10:54:47.472Z,15.85
2022-11-14T10:57:21.292Z,15.73
2022-11-14T11:02:15.548Z,15.00
2022-11-14T11:04:44.257Z,15.15
2022-11-14T11:07:33.758Z,14.35
2022-11-14T11:10:19.491Z,14.05
2022-11-14T11:12:53.620Z,14.50
2022-11-14T11:15:27.969Z,15.27
2022-11-14T11:17:58.675Z,14.30
2022-11-14T11:20:37.355Z,14.88
2022-11-14T11:23:15.848Z,15.40
2022-11-14T11:25:42.564Z,15.40
2022-11-14T11:28:16.418Z,14.68
2022-11-14T11:33:29.473Z,13.98
2022-11-14T11:36:03.315Z,14.00
2022-11-14T11:38:32.280Z,13.80
2022-11-14T11:42:02.316Z,14.52
2022-11-14T11:44:19.126Z,14.13
2022-11-14T11:46:50.689Z,14.50
2022-11-14T11:49:42.913Z,14.82
2022-11-14T11:52:33.516Z,14.75
2022-11-14T11:55:17.266Z,14.32
2022-11-14T11:58:12.749Z,14.07
2022-11-14T12:00:39.492Z,14.48
2022-11-14T12:03:13.222Z,14.48
2022-11-14T12:05:54.707Z,14.98
2022-11-14T12:08:26.913Z,13.98
2022-11-14T12:10:56.927Z,14.85
2022-11-14T12:13:47.905Z,15.25
2022-11-14T12:16:42.088Z,15.02
2022-11-14T12:19:47.451Z,12.43
2022-11-14T12:22:32.558Z,12.93
2022-11-14T12:25:09.591Z,14.63
2022-11-14T12:28:31.758Z,14.23
2022-11-14T12:31:02.927Z,14.40
2022-11-14T12:33:38.541Z,13.93
2022-11-14T12:36:11.824Z,14.55
2022-11-14T12:38:57.949Z,15.45
2022-11-14T12:41:38.284Z,14.38
2022-11-14T12:44:34.219Z,14.15
2022-11-14T12:47:17.689Z,14.10
2022-11-14T12:49:50.128Z,12.98
2022-11-14T12:52:44.759Z,13.48
2022-11-14T12:55:31.666Z,13.50
2022-11-14T12:58:41.511Z,12.45
2022-11-14T13:01:26.698Z,13.10
2022-11-14T13:04:13.644Z,12.52
2022-11-14T13:06:47.645Z,13.02
2022-11-14T13:09:33.929Z,14.30
2022-11-14T13:12:47.926Z,12.95
2022-11-14T13:15:52.738Z,13.38
2022-11-14T13:21:44.804Z,13.10
2022-11-14T13:24:17.611Z,13.00
2022-11-14T13:26:48.239Z,13.27
2022-11-14T13:29:42.076Z,13.82
2022-11-14T13:32:11.535Z,13.98
2022-11-14T13:34:56.926Z,14.30
2022-11-14T13:38:04.695Z,12.55
2022-11-14T13:41:05.496Z,13.20
2022-11-14T13:43:46.975Z,12.55
2022-11-14T13:46:38.603Z,12.70
2022-11-14T13:49:30.251Z,13.23
2022-11-14T13:51:57.202Z,12.63
2022-11-14T13:54:24.089Z,13.52
2022-11-14T13:57:16.142Z,12.98
2022-11-14T14:00:16.788Z,13.23
2022-11-14T14:02:56.740Z,12.57
2022-11-14T14:05:37.928Z,12.95
2022-11-14T14:08:13.671Z,13.23
2022-11-14T14:11:09.450Z,13.45
2022-11-14T14:13:45.013Z,13.23
2022-11-14T14:16:17.435Z,12.18
2022-11-14T14:19:05.301Z,13.52
2022-11-14T14:21:37.974Z,12.10
2022-11-14T14:24:28.798Z,12.68
2022-11-14T14:27:10.913Z,12.85
2022-11-14T14:30:01.100Z,12.98
2022-11-14T14:32:27.769Z,13.02
2022-11-14T14:34:57.035Z,13.38
2022-11-14T14:37:27.823Z,12.55
2022-11-14T14:40:02.479Z,13.77
2022-11-14T14:42:46.981Z,13.20
2022-11-14T14:45:20.857Z,12.88
2022-11-14T14:50:23.015Z,13.23
2022-11-14T14:53:05.238Z,13.38
2022-11-14T14:55:34.768Z,12.90
2022-11-14T14:58:25.850Z,12.43
2022-11-14T15:00:54.006Z,12.75
2022-11-14T15:03:35.494Z,12.70
2022-11-14T15:06:22.144Z,12.27
2022-11-14T15:08:51.304Z,12.65
2022-11-14T15:11:18.111Z,12.98
2022-11-14T15:13:52.482Z,12.10
2022-11-14T15:16:23.035Z,11.70
2022-11-14T15:18:52.386Z,12.15
2022-11-14T15:21:24.581Z,11.20
2022-11-14T15:24:18.520Z,12.25
2022-11-14T15:26:46.687Z,11.63
2022-11-14T15:29:20.893Z,12.40
2022-11-14T15:31:54.678Z,12.15
2022-11-14T15:34:40.006Z,12.15
2022-11-14T15:37:21.828Z,13.00
2022-11-14T15:39:50.922Z,13.32
2022-11-14T15:42:28.285Z,12.73
2022-11-14T15:44:57.273Z,12.68
2022-11-14T15:47:39.361Z,13.98
2022-11-14T15:50:12.183Z,12.85
2022-11-14T15:52:55.321Z,11.88
2022-11-14T15:55:24.185Z,12.38
2022-11-14T15:58:13.637Z,12.15
2022-11-14T16:00:47.153Z,12.18
2022-11-14T16:03:20.247Z,12.50
2022-11-14T16:05:47.031Z,12.50
2022-11-14T16:08:13.905Z,13.50
2022-11-14T16:10:41.105Z,12.50
2022-11-14T16:13:08.336Z,13.05
2022-11-14T16:15:35.044Z,11.90
2022-11-14T16:18:05.264Z,12.75
2022-11-14T16:20:37.905Z,12.23
2022-11-14T16:23:05.269Z,12.48
2022-11-14T16:25:34.478Z,11.60
2022-11-14T16:28:01.105Z,12.55
2022-11-14T16:30:39.221Z,12.75
2022-11-14T16:33:08.416Z,11.95
2022-11-14T16:35:38.421Z,12.90
2022-11-14T16:38:05.435Z,12.02
2022-11-14T16:40:32.421Z,11.98
2022-11-14T16:43:01.881Z,11.55
2022-11-14T16:45:30.686Z,11.68
2022-11-14T16:47:57.413Z,11.38
2022-11-14T16:50:24.049Z,11.77
2022-11-14T16:52:53.187Z,12.05
2022-11-14T16:55:22.325Z,11.93
2022-11-14T16:57:49.306Z,11.40
2022-11-14T17:00:16.575Z,11.35
2022-11-14T17:02:43.356Z,11.95
2022-11-14T17:05:10.077Z,11.25
2022-11-14T17:07:36.995Z,11.50
2022-11-14T17:10:07.520Z,12.23
2022-11-14T17:12:34.559Z,11.43
2022-11-14T17:15:01.326Z,11.57
2022-11-14T17:17:28.107Z,11.82
2022-11-14T17:19:54.992Z,11.40
2022-11-14T17:22:21.720Z,14.05
2022-11-14T17:24:48.545Z,14.52
2022-11-14T17:27:15.342Z,13.70
2022-11-14T17:29:44.625Z,11.85
2022-11-14T17:32:11.466Z,12.93
2022-11-14T17:34:45.862Z,13.90
2022-11-14T17:37:14.945Z,14.63
2022-11-14T17:39:41.766Z,14.93
2022-11-14T17:42:08.379Z,16.35
2022-11-14T17:44:35.192Z,16.30
2022-11-14T17:47:04.232Z,16.45
2022-11-14T17:49:32.065Z,17.08
2022-11-14T17:52:01.048Z,16.27
2022-11-14T17:54:27.825Z,16.35
2022-11-14T17:56:55.274Z,16.05
2022-11-14T17:59:22.122Z,16.55
2022-11-14T18:01:48.881Z,15.80
2022-11-14T18:04:15.943Z,16.92
2022-11-14T18:06:42.752Z,17.45
2022-11-14T18:09:14.732Z,18.10
2022-11-14T18:11:41.841Z,17.77
2022-11-14T18:14:08.719Z,18.00
2022-11-14T18:17:05.409Z,16.60
2022-11-14T18:19:28.195Z,17.02
2022-11-14T18:21:55.055Z,19.08
2022-11-14T18:24:24.180Z,18.27
2022-11-14T18:26:51.125Z,18.80
2022-11-14T18:29:18.409Z,17.77
2022-11-14T18:31:45.366Z,17.65
2022-11-14T18:34:12.390Z,17.83
2022-11-14T18:36:39.348Z,17.30
2022-11-14T18:39:06.710Z,16.35
2022-11-14T18:41:33.459Z,13.45
2022-11-14T18:44:03.677Z,12.30
2022-11-14T18:46:37.209Z,11.55
2022-11-14T18:49:04.339Z,11.70
2022-11-14T18:51:41.846Z,10.90
2022-11-14T18:54:16.171Z,9.88
2022-11-14T18:56:43.144Z,10.30
2022-11-14T18:59:09.905Z,9.73
2022-11-14T19:01:37.173Z,8.77
2022-11-14T19:04:09.841Z,8.13
2022-11-14T19:06:38.878Z,7.65
2022-11-14T19:09:11.605Z,7.65
2022-11-14T19:11:57.220Z,7.68
2022-11-14T19:14:24.393Z,7.57
2022-11-14T19:16:51.342Z,7.18
2022-11-14T19:19:18.344Z,7.68
2022-11-14T19:21:47.793Z,7.15
2022-11-14T19:24:14.643Z,7.57
2022-11-14T19:26:41.570Z,6.53
2022-11-14T19:29:14.691Z,5.35
2022-11-14T19:31:42.940Z,4.47
2022-11-14T19:34:10.179Z,4.90
2022-11-14T19:36:58.783Z,4.28
2022-11-14T19:39:26.025Z,4.10
2022-11-14T19:41:52.755Z,3.58
2022-11-14T19:44:21.917Z,3.72
2022-11-14T19:46:48.550Z,3.47
2022-11-14T19:49:18.209Z,3.95
2022-11-14T19:51:45.151Z,3.90
2022-11-14T19:54:12.156Z,3.60
2022-11-14T19:56:41.106Z,3.15
2022-11-14T19:59:14.014Z,3.72
2022-11-14T20:01:42.470Z,4.30
2022-11-14T20:04:12.314Z,3.60
2022-11-14T20:06:42.006Z,3.40
2022-11-14T20:09:10.369Z,3.88
2022-11-14T20:11:37.389Z,3.30
2022-11-14T20:14:05.553Z,3.88
2022-11-14T20:16:38.018Z,3.83
2022-11-14T20:19:05.107Z,3.17
2022-11-14T20:21:33.770Z,3.47
2022-11-14T20:24:00.975Z,4.00
2022-11-14T20:26:27.880Z,3.75
2022-11-14T20:28:54.856Z,3.88
2022-11-14T20:31:30.879Z,4.00
2022-11-14T20:34:00.060Z,3.60
2022-11-14T20:36:31.953Z,4.00
2022-11-14T20:39:02.103Z,4.15
2022-11-14T20:41:31.412Z,4.50
2022-11-14T20:43:58.403Z,4.00
2022-11-14T20:46:25.124Z,4.35
2022-11-14T20:48:51.898Z,4.05
2022-11-14T20:51:24.206Z,4.72
2022-11-14T20:53:53.294Z,4.60
2022-11-14T20:56:21.504Z,4.82
2022-11-14T20:58:52.072Z,4.65
2022-11-14T21:01:19.619Z,4.63
2022-11-14T21:03:47.409Z,4.50
2022-11-14T21:06:16.105Z,5.18
2022-11-14T21:08:43.082Z,4.15
2022-11-14T21:11:15.895Z,3.00
2022-11-14T21:13:58.502Z,3.30
2022-11-14T21:16:27.510Z,2.70
2022-11-14T21:18:57.467Z,2.80
2022-11-14T21:21:27.425Z,3.72
2022-11-14T21:23:55.174Z,3.17
2022-11-14T21:26:23.336Z,3.00
2022-11-14T21:28:53.500Z,2.40
2022-11-14T21:31:27.885Z,3.20
2022-11-14T21:33:58.707Z,5.63
2022-11-14T21:39:15.210Z,6.18
2022-11-14T21:41:44.721Z,5.47
2022-11-14T21:44:14.454Z,5.60
2022-11-14T21:46:47.011Z,5.28
2022-11-14T21:49:14.152Z,5.93
2022-11-14T21:51:40.766Z,6.30
2022-11-14T21:54:08.710Z,8.38
2022-11-14T21:56:37.131Z,7.43
2022-11-14T21:59:13.853Z,6.75
2022-11-14T22:02:05.750Z,10.35
2022-11-14T22:04:32.972Z,7.78
2022-11-14T22:07:02.362Z,7.72
2022-11-14T22:09:32.344Z,7.78
2022-11-14T22:12:00.411Z,8.07
2022-11-14T22:14:27.211Z,8.40
2022-11-14T22:16:53.949Z,7.78
2022-11-14T22:19:20.672Z,7.85
2022-11-14T22:21:47.460Z,8.88
2022-11-14T22:24:14.148Z,8.40
2022-11-14T22:26:41.370Z,13.95
2022-11-14T22:29:08.968Z,9.95
2022-11-14T22:31:37.719Z,8.57
2022-11-14T22:34:04.725Z,9.13
2022-11-14T22:36:31.537Z,8.80
2022-11-14T22:38:58.486Z,8.13
2022-11-14T22:41:32.807Z,7.25
2022-11-14T22:44:00.471Z,6.55
2022-11-14T22:46:27.742Z,6.20
2022-11-14T22:48:54.802Z,5.97
2022-11-14T22:51:26.715Z,6.35
2022-11-14T22:53:55.317Z,5.95
2022-11-14T22:56:27.348Z,5.97
2022-11-14T22:58:54.670Z,6.40
2022-11-14T23:01:31.000Z,6.78
2022-11-14T23:04:00.298Z,6.20
2022-11-14T23:06:30.393Z,6.57
2022-11-14T23:09:00.038Z,6.38
2022-11-14T23:11:33.722Z,6.82
2022-11-14T23:14:01.277Z,7.30
2022-11-14T23:16:31.102Z,6.90
2022-11-14T23:19:05.943Z,7.47
2022-11-14T23:21:35.722Z,6.97
2022-11-14T23:24:05.586Z,7.28
2022-11-14T23:26:35.968Z,7.20
2022-11-14T23:29:02.622Z,7.47
2022-11-14T23:31:29.261Z,6.85
2022-11-14T23:33:56.291Z,7.30
2022-11-14T23:36:22.994Z,7.15
2022-11-14T23:38:52.635Z,6.93
2022-11-14T23:41:21.522Z,7.20
2022-11-14T23:43:48.574Z,7.80
2022-11-14T23:46:15.568Z,7.13
2022-11-14T23:48:44.966Z,6.75
2022-11-14T23:51:14.072Z,6.90
2022-11-14T23:53:42.937Z,6.80
2022-11-14T23:56:13.389Z,7.28
2022-11-14T23:58:40.582Z,7.93
